Time;durP1;ratioP1;P1;durP2;ratioP2;P2;SDS_P1;SDS_P2;PMS_P1;PMS_P2;Temp;Humidity;BMP_temperature;BMP_pressure;BME280_temperature;BME280_humidity;BME280_pressure;Samples;Min_cycle;Max_cycle;Signal;HPM_P1;HPM_P2
2021/07/29 00:02:24;;;;;;;;;;;;;;;13.87;100.00;97879.31;5109424;28;20278;-79
2021/07/29 00:04:52;;;;;;;;;;;;;;;13.77;100.00;97883.41;5092237;28;20355;-78
2021/07/29 00:07:20;;;;;;;;;;;;;;;14.05;100.00;97873.66;5067633;28;19935;-79
2021/07/29 00:09:47;;;;;;;;;;;;;;;14.14;100.00;97887.66;5074840;28;19931;-79
2021/07/29 00:12:14;;;;;;;;;;;;;;;14.29;100.00;97879.31;5075483;28;20363;-78
2021/07/29 00:14:48;;;;;;;;;;;;;;;13.95;100.00;97885.41;5074534;28;20422;-78
2021/07/29 00:17:29;;;;;;;;;;;;;;;13.91;100.00;97890.38;5066928;28;19924;-78
2021/07/29 00:19:57;;;;;;;;;;;;;;;14.15;100.00;97888.41;5075171;28;19950;-78
2021/07/29 00:22:24;;;;;;;;;;;;;;;14.08;100.00;97888.75;5093383;28;19954;-78
2021/07/29 00:24:51;;;;;;;;;;;;;;;14.29;100.00;97884.94;5075662;28;19924;-78
2021/07/29 00:27:18;;;;;;;;;;;;;;;14.25;100.00;97887.16;5093488;28;19931;-78
2021/07/29 00:29:45;;;;;;;;;;;;;;;14.29;100.00;97882.13;5109297;28;20015;-78
2021/07/29 00:32:12;;;;;;;;;;;;;;;14.01;100.00;97872.25;5093374;28;20328;-78
2021/07/29 00:34:42;;;;;;;;;;;;;;;14.36;100.00;97882.56;5092564;28;19924;-78
2021/07/29 00:37:09;;;;;;;;;;;;;;;14.38;100.00;97873.66;5093441;28;19924;-79
2021/07/29 00:39:36;;;;;;;;;;;;;;;14.58;100.00;97868.22;5075514;28;19924;-79
2021/07/29 00:42:03;;;;;;;;;;;;;;;14.41;100.00;97867.06;5074622;28;19924;-78
2021/07/29 00:44:30;;;;;;;;;;;;;;;14.48;100.00;97859.06;5080353;28;19981;-78
2021/07/29 00:46:57;;;;;;;;;;;;;;;14.58;100.00;97864.63;5093274;28;19924;-78
2021/07/29 00:49:24;;;;;;;;;;;;;;;14.53;100.00;97868.88;5108859;28;20005;-78
2021/07/29 00:51:52;;;;;;;;;;;;;;;14.53;100.00;97863.25;5093377;28;19932;-79
2021/07/29 00:54:19;;;;;;;;;;;;;;;14.30;100.00;97866.81;5075424;28;19924;-79
2021/07/29 00:56:46;;;;;;;;;;;;;;;14.51;100.00;97877.00;5092166;28;19924;-79
2021/07/29 00:59:13;;;;;;;;;;;;;;;14.53;100.00;97868.88;5093392;28;19928;-79
2021/07/29 01:01:40;;;;;;;;;;;;;;;14.64;100.00;97874.75;5093097;28;19924;-79
2021/07/29 01:04:07;;;;;;;;;;;;;;;14.40;100.00;97868.34;5093412;28;19928;-79
2021/07/29 01:06:34;;;;;;;;;;;;;;;14.68;100.00;97875.31;5075323;28;20363;-78
2021/07/29 01:09:08;;;;;;;;;;;;;;;14.62;100.00;97871.63;5076855;28;20024;-79
2021/07/29 01:11:37;;;;;;;;;;;;;;;14.76;100.00;97870.13;5097040;28;20023;-79
2021/07/29 01:14:04;;;;;;;;;;;;;;;14.63;100.00;97863.97;5097008;28;19932;-79
2021/07/29 01:16:32;;;;;;;;;;;;;;;14.72;100.00;97855.47;5096603;28;19959;-78
2021/07/29 01:19:00;;;;;;;;;;;;;;;15.02;100.00;97859.91;5078843;28;19931;-79
2021/07/29 01:21:36;;;;;;;;;;;;;;;14.92;100.00;97856.41;5096293;28;19981;-78
2021/07/29 01:24:03;;;;;;;;;;;;;;;14.73;100.00;97860.63;5083137;28;19931;-79
2021/07/29 01:26:31;;;;;;;;;;;;;;;14.95;100.00;97860.28;5096792;28;19928;-79
2021/07/29 01:28:59;;;;;;;;;;;;;;;14.84;100.00;97849.59;5078443;28;19924;-78
2021/07/29 01:31:28;;;;;;;;;;;;;;;14.52;100.00;97860.91;5079015;28;19967;-79
2021/07/29 01:33:56;;;;;;;;;;;;;;;14.51;100.00;97859.38;5096583;28;19924;-79
2021/07/29 01:36:23;;;;;;;;;;;;;;;14.49;100.00;97880.28;5096782;28;19936;-79
2021/07/29 01:38:50;;;;;;;;;;;;;;;14.72;100.00;97870.31;5096582;28;19981;-78
2021/07/29 01:41:17;;;;;;;;;;;;;;;14.56;100.00;97862.28;5096387;28;19935;-78
2021/07/29 01:43:44;;;;;;;;;;;;;;;14.78;100.00;97874.03;5096219;28;19931;-79
2021/07/29 01:46:12;;;;;;;;;;;;;;;14.75;100.00;97879.81;5092144;28;19925;-78
2021/07/29 01:48:39;;;;;;;;;;;;;;;14.62;100.00;97868.81;5061831;28;19947;-78
2021/07/29 01:51:07;;;;;;;;;;;;;;;14.41;100.00;97876.28;5058352;28;20470;-79
2021/07/29 01:53:34;;;;;;;;;;;;;;;14.61;100.00;97878.50;5074547;28;19932;-78
2021/07/29 01:56:01;;;;;;;;;;;;;;;14.74;100.00;97872.66;5092253;28;19924;-78
2021/07/29 01:58:28;;;;;;;;;;;;;;;14.60;100.00;97876.19;5095932;28;19931;-78
2021/07/29 02:00:55;;;;;;;;;;;;;;;14.95;100.00;97877.94;5077629;28;20042;-78
2021/07/29 02:03:22;;;;;;;;;;;;;;;14.91;100.00;97880.16;5077946;28;19989;-78
2021/07/29 02:05:49;;;;;;;;;;;;;;;14.77;100.00;97872.44;5095927;28;20378;-78
2021/07/29 02:08:16;;;;;;;;;;;;;;;15.00;100.00;97868.84;5096041;28;19931;-78
2021/07/29 02:10:58;;;;;;;;;;;;;;;14.71;100.00;97865.94;5095683;28;19928;-78
2021/07/29 02:13:25;;;;;;;;;;;;;;;14.59;100.00;97872.56;5095775;28;19928;-79
2021/07/29 02:15:52;;;;;;;;;;;;;;;14.64;100.00;97882.38;5111353;28;20374;-78
2021/07/29 02:18:19;;;;;;;;;;;;;;;14.69;100.00;97885.34;5095638;28;19924;-78
2021/07/29 02:20:46;;;;;;;;;;;;;;;14.71;100.00;97880.00;5095499;28;19931;-79
2021/07/29 02:23:13;;;;;;;;;;;;;;;14.49;100.00;97882.34;5077176;28;20256;-79
2021/07/29 02:25:41;;;;;;;;;;;;;;;14.51;100.00;97882.63;5111320;28;20223;-79
2021/07/29 02:28:08;;;;;;;;;;;;;;;14.78;100.00;97890.88;5080917;28;19924;-78
2021/07/29 02:30:35;;;;;;;;;;;;;;;14.62;100.00;97882.88;5072532;28;19924;-78
2021/07/29 02:33:02;;;;;;;;;;;;;;;14.82;100.00;97891.47;5075229;28;19925;-78
2021/07/29 02:35:29;;;;;;;;;;;;;;;14.75;100.00;97886.22;5059255;28;19924;-78
2021/07/29 02:37:56;;;;;;;;;;;;;;;14.74;100.00;97887.47;5077271;28;19932;-78
2021/07/29 02:40:23;;;;;;;;;;;;;;;14.63;100.00;97892.84;5060811;28;20283;-78
2021/07/29 02:42:50;;;;;;;;;;;;;;;14.45;100.00;97884.53;5052894;28;20382;-78
2021/07/29 02:45:18;;;;;;;;;;;;;;;14.85;100.00;97881.28;5058876;28;20318;-78
2021/07/29 02:47:45;;;;;;;;;;;;;;;14.80;100.00;97879.91;5075131;28;20391;-78
2021/07/29 02:50:12;;;;;;;;;;;;;;;14.84;100.00;97883.34;5058274;28;20613;-78
2021/07/29 02:52:41;;;;;;;;;;;;;;;14.68;100.00;97875.31;5091998;28;19924;-78
2021/07/29 02:55:08;;;;;;;;;;;;;;;15.03;100.00;97873.50;5077890;28;19925;-78
2021/07/29 02:57:36;;;;;;;;;;;;;;;14.74;100.00;97884.66;5074491;28;19929;-78
2021/07/29 03:00:03;;;;;;;;;;;;;;;14.84;100.00;97883.34;5077896;28;19924;-78
2021/07/29 03:02:30;;;;;;;;;;;;;;;14.60;100.00;97871.31;5043641;28;20456;-79
2021/07/29 03:04:57;;;;;;;;;;;;;;;14.44;100.00;97889.38;5094651;28;19967;-78
2021/07/29 03:07:26;;;;;;;;;;;;;;;14.86;100.00;97886.44;5076445;28;19928;-78
2021/07/29 03:09:53;;;;;;;;;;;;;;;14.72;100.00;97886.41;5076753;28;19924;-79
2021/07/29 03:12:20;;;;;;;;;;;;;;;14.95;100.00;97897.63;5094239;28;20386;-78
2021/07/29 03:14:50;;;;;;;;;;;;;;;14.77;100.00;97886.50;5076948;28;19977;-78
2021/07/29 03:17:17;;;;;;;;;;;;;;;14.67;100.00;97884.25;5094528;28;19924;-79
2021/07/29 03:19:44;;;;;;;;;;;;;;;14.81;100.00;97895.56;5076505;28;19931;-79
2021/07/29 03:22:12;;;;;;;;;;;;;;;14.75;100.00;97893.88;5094402;28;20295;-78
2021/07/29 03:24:39;;;;;;;;;;;;;;;14.56;100.00;97900.84;5076405;28;20267;-78
2021/07/29 03:27:06;;;;;;;;;;;;;;;14.62;100.00;97898.94;5094080;28;19931;-79
2021/07/29 03:29:33;;;;;;;;;;;;;;;14.69;100.00;97907.03;5092828;28;20386;-79
2021/07/29 03:32:01;;;;;;;;;;;;;;;15.03;100.00;97900.84;5093816;28;19928;-79
2021/07/29 03:34:31;;;;;;;;;;;;;;;15.02;100.00;97902.88;5062579;28;20602;-79
2021/07/29 03:36:58;;;;;;;;;;;;;;;15.01;100.00;97901.31;5069008;28;20011;-79
2021/07/29 03:39:25;;;;;;;;;;;;;;;14.69;100.00;97905.00;5087601;28;19928;-78
2021/07/29 03:41:52;;;;;;;;;;;;;;;14.63;100.00;97909.72;5058929;28;19924;-78
2021/07/29 03:44:19;;;;;;;;;;;;;;;14.69;100.00;97902.19;5094050;28;20359;-78
2021/07/29 03:46:46;;;;;;;;;;;;;;;14.44;100.00;97917.50;5094011;28;19924;-78
2021/07/29 03:49:13;;;;;;;;;;;;;;;14.53;100.00;97916.66;5076103;28;19928;-78
2021/07/29 03:51:40;;;;;;;;;;;;;;;14.58;100.00;97915.22;5093724;28;20303;-78
2021/07/29 03:54:08;;;;;;;;;;;;;;;14.77;100.00;97911.81;5093970;28;19924;-78
2021/07/29 03:56:35;;;;;;;;;;;;;;;14.31;100.00;97904.91;5093503;28;20002;-78
2021/07/29 03:59:02;;;;;;;;;;;;;;;14.39;100.00;97897.66;5075697;28;19924;-78
2021/07/29 04:01:29;;;;;;;;;;;;;;;14.35;100.00;97905.50;5096009;28;20368;-78
2021/07/29 04:03:59;;;;;;;;;;;;;;;14.22;100.00;97904.94;5093286;28;19931;-78
2021/07/29 04:06:26;;;;;;;;;;;;;;;14.22;100.00;97910.56;5093831;28;20367;-78
2021/07/29 04:08:55;;;;;;;;;;;;;;;14.14;100.00;97917.75;5094798;28;19924;-79
2021/07/29 04:11:21;;;;;;;;;;;;;;;14.03;100.00;97915.47;5068882;28;19933;-78
2021/07/29 04:13:49;;;;;;;;;;;;;;;14.01;100.00;97922.81;5068352;28;19931;-79
2021/07/29 04:16:16;;;;;;;;;;;;;;;14.06;100.00;97928.56;5075668;28;20311;-78
2021/07/29 04:18:43;;;;;;;;;;;;;;;14.10;100.00;97929.16;5093644;28;19931;-79
2021/07/29 04:21:16;;;;;;;;;;;;;;;14.12;100.00;97934.28;5108924;28;19924;-78
2021/07/29 04:23:43;;;;;;;;;;;;;;;13.87;100.00;97920.66;5093492;28;20303;-79
2021/07/29 04:26:10;;;;;;;;;;;;;;;13.97;100.00;97927.81;5093076;28;19931;-78
2021/07/29 04:28:38;;;;;;;;;;;;;;;13.90;100.00;97923.28;5084928;28;20007;-78
2021/07/29 04:31:05;;;;;;;;;;;;;;;13.91;100.00;97930.47;5088140;28;19932;-78
2021/07/29 04:33:32;;;;;;;;;;;;;;;13.90;100.00;97930.94;5075382;28;20379;-79
2021/07/29 04:35:59;;;;;;;;;;;;;;;13.86;100.00;97938.75;5059127;28;19924;-79
2021/07/29 04:38:26;;;;;;;;;;;;;;;13.98;100.00;97951.84;5093309;28;20342;-79
2021/07/29 04:41:03;;;;;;;;;;;;;;;14.17;100.00;97930.84;5058560;28;19924;-78
2021/07/29 04:43:31;;;;;;;;;;;;;;;14.43;100.00;97932.00;5088901;28;20360;-78
2021/07/29 04:46:02;;;;;;;;;;;;;;;14.13;100.00;97933.06;5088709;28;19924;-78
2021/07/29 04:48:29;;;;;;;;;;;;;;;13.98;100.00;97929.38;5079513;28;19924;-79
2021/07/29 04:51:04;;;;;;;;;;;;;;;13.89;100.00;97923.75;5079662;28;20007;-79
2021/07/29 04:53:32;;;;;;;;;;;;;;;13.95;100.00;97930.31;5079140;28;19971;-79
2021/07/29 04:55:59;;;;;;;;;;;;;;;13.87;100.00;97927.03;5079088;28;19924;-79
2021/07/29 04:58:26;;;;;;;;;;;;;;;14.00;100.00;97929.66;5097243;28;19932;-78
2021/07/29 05:00:53;;;;;;;;;;;;;;;14.02;100.00;97927.16;5112890;28;19928;-79
2021/07/29 05:03:19;;;;;;;;;;;;;;;14.02;100.00;97925.16;5112767;28;19959;-79
2021/07/29 05:05:46;;;;;;;;;;;;;;;14.16;100.00;97930.06;5097021;28;20345;-79
2021/07/29 05:08:14;;;;;;;;;;;;;;;14.23;100.00;97918.53;5096897;28;19967;-79
2021/07/29 05:10:41;;;;;;;;;;;;;;;13.99;100.00;97926.09;5078566;28;19947;-79
2021/07/29 05:13:10;;;;;;;;;;;;;;;13.89;100.00;97923.75;5097092;28;19930;-79
2021/07/29 05:15:37;;;;;;;;;;;;;;;14.04;100.00;97924.69;5097076;28;19975;-79
2021/07/29 05:18:04;;;;;;;;;;;;;;;14.10;100.00;97925.59;5078844;28;19931;-78
2021/07/29 05:20:33;;;;;;;;;;;;;;;14.16;100.00;97930.06;5096856;28;19930;-79
2021/07/29 05:23:00;;;;;;;;;;;;;;;13.85;100.00;97923.94;5096466;28;19924;-79
2021/07/29 05:25:27;;;;;;;;;;;;;;;13.72;100.00;97922.59;5112373;28;20379;-78
2021/07/29 05:27:54;;;;;;;;;;;;;;;13.89;100.00;97920.94;5078709;28;19993;-78
2021/07/29 05:30:21;;;;;;;;;;;;;;;14.06;100.00;97925.75;5078473;28;19924;-79
2021/07/29 05:32:48;;;;;;;;;;;;;;;13.98;100.00;97918.16;5096448;28;19930;-78
2021/07/29 05:35:15;;;;;;;;;;;;;;;13.97;100.00;97927.81;5078452;28;19978;-78
2021/07/29 05:37:42;;;;;;;;;;;;;;;14.14;100.00;97931.81;5071044;28;19962;-79
2021/07/29 05:40:09;;;;;;;;;;;;;;;14.19;100.00;97929.13;5079379;28;20012;-79
2021/07/29 05:42:36;;;;;;;;;;;;;;;14.06;100.00;97936.19;5061176;28;20318;-78
2021/07/29 05:45:04;;;;;;;;;;;;;;;14.17;100.00;97939.28;5071806;28;19931;-79
2021/07/29 05:47:31;;;;;;;;;;;;;;;13.96;100.00;97931.88;5075248;28;19924;-79
2021/07/29 05:49:58;;;;;;;;;;;;;;;14.27;100.00;97935.19;5077948;28;20027;-79
2021/07/29 05:52:26;;;;;;;;;;;;;;;14.28;100.00;97926.28;5059583;28;19968;-79
2021/07/29 05:54:54;;;;;;;;;;;;;;;14.21;100.00;97931.44;5041808;28;20390;-78
2021/07/29 05:57:21;;;;;;;;;;;;;;;14.20;100.00;97929.91;5077521;28;20019;-79
2021/07/29 05:59:47;;;;;;;;;;;;;;;14.12;100.00;97939.91;5077295;28;19924;-79
2021/07/29 06:02:14;;;;;;;;;;;;;;;14.37;100.00;97934.69;5031223;28;19930;-79
2021/07/29 06:04:43;;;;;;;;;;;;;;;14.37;100.00;97945.16;5088307;28;20694;-79
2021/07/29 06:07:10;;;;;;;;;;;;;;;14.26;100.00;97940.06;5088085;28;19951;-78
2021/07/29 06:09:38;;;;;;;;;;;;;;;14.28;100.00;97948.78;5067565;28;20379;-78
2021/07/29 06:12:05;;;;;;;;;;;;;;;14.26;100.00;97944.88;5082420;28;19924;-79
2021/07/29 06:14:32;;;;;;;;;;;;;;;14.32;100.00;97934.56;5080299;28;19935;-77
2021/07/29 06:16:59;;;;;;;;;;;;;;;14.34;100.00;97937.69;5095351;28;19931;-77
2021/07/29 06:19:31;;;;;;;;;;;;;;;14.07;100.00;97941.34;5094356;28;19924;-77
2021/07/29 06:21:59;;;;;;;;;;;;;;;14.23;100.00;97949.44;5066743;28;19933;-78
2021/07/29 06:24:26;;;;;;;;;;;;;;;14.34;100.00;97934.88;5091293;28;19931;-78
2021/07/29 06:26:54;;;;;;;;;;;;;;;14.39;100.00;97937.00;5052068;28;19924;-77
2021/07/29 06:29:21;;;;;;;;;;;;;;;14.37;100.00;97953.59;5058176;28;19932;-79
2021/07/29 06:31:48;;;;;;;;;;;;;;;14.20;100.00;97941.13;5095015;28;19978;-77
2021/07/29 06:34:16;;;;;;;;;;;;;;;14.50;100.00;97954.13;5060362;28;20010;-78
2021/07/29 06:36:43;;;;;;;;;;;;;;;14.22;100.00;97949.88;5094009;28;19927;-77
2021/07/29 06:39:10;;;;;;;;;;;;;;;14.39;100.00;97954.66;5094805;28;19931;-78
2021/07/29 06:41:39;;;;;;;;;;;;;;;14.49;100.00;97935.72;5077153;28;20336;-80
2021/07/29 06:44:08;;;;;;;;;;;;;;;14.46;100.00;97947.94;5057635;28;19928;-80
2021/07/29 06:46:36;;;;;;;;;;;;;;;14.84;100.00;97955.66;5057544;28;19932;-80
2021/07/29 06:49:06;;;;;;;;;;;;;;;14.77;100.00;97956.78;5057823;28;20390;-80
2021/07/29 06:51:37;;;;;;;;;;;;;;;14.80;100.00;97961.47;5056902;28;19928;-80
2021/07/29 06:54:04;;;;;;;;;;;;;;;14.78;100.00;97952.75;5020872;28;19924;-80
2021/07/29 06:56:31;;;;;;;;;;;;;;;14.74;100.00;97966.19;5068772;28;19925;-80
2021/07/29 06:58:59;;;;;;;;;;;;;;;14.60;100.00;97966.88;5074257;28;20018;-80
2021/07/29 07:01:27;;;;;;;;;;;;;;;14.87;100.00;97957.53;5076276;28;19978;-80
2021/07/29 07:03:54;;;;;;;;;;;;;;;15.14;100.00;97971.41;5045629;28;19925;-80
2021/07/29 07:06:22;;;;;;;;;;;;;;;15.18;100.00;97972.78;5081819;28;19924;-79
2021/07/29 07:08:49;;;;;;;;;;;;;;;15.30;100.00;97965.31;5073028;28;19924;-80
2021/07/29 07:11:17;;;;;;;;;;;;;;;15.59;100.00;97965.41;5053065;28;19924;-80
2021/07/29 07:13:46;;;;;;;;;;;;;;;15.66;100.00;97965.81;5040668;28;20265;-80
2021/07/29 07:16:14;;;;;;;;;;;;;;;16.03;100.00;97974.69;5047542;28;19928;-80
2021/07/29 07:18:42;;;;;;;;;;;;;;;16.32;100.00;97965.44;5047685;28;19934;-80
2021/07/29 07:21:10;;;;;;;;;;;;;;;16.69;100.00;97967.31;5056903;28;19930;-80
2021/07/29 07:23:40;;;;;;;;;;;;;;;16.49;100.00;97956.00;5037826;28;19950;-80
2021/07/29 07:26:18;;;;;;;;;;;;;;;16.22;100.00;97956.31;5090612;28;20552;-81
2021/07/29 07:28:45;;;;;;;;;;;;;;;16.68;100.00;97970.63;5034551;28;19924;-82
2021/07/29 07:31:13;;;;;;;;;;;;;;;16.95;100.00;97956.16;5088511;28;19993;-81
2021/07/29 07:33:40;;;;;;;;;;;;;;;16.59;100.00;97974.34;5040325;28;20361;-80
2021/07/29 07:36:07;;;;;;;;;;;;;;;16.87;100.00;97960.66;5039806;28;19924;-83
2021/07/29 07:38:34;;;;;;;;;;;;;;;17.37;100.00;97971.31;5076496;28;20031;-81
2021/07/29 07:41:06;;;;;;;;;;;;;;;16.92;100.00;97962.78;5081164;28;19925;-81
2021/07/29 07:43:34;;;;;;;;;;;;;;;17.98;100.00;97969.19;5083770;28;19935;-81
2021/07/29 07:46:02;;;;;;;;;;;;;;;17.72;100.00;97957.13;5067133;28;19947;-81
2021/07/29 07:48:29;;;;;;;;;;;;;;;17.44;100.00;97944.75;5073187;28;19924;-81
2021/07/29 07:50:56;;;;;;;;;;;;;;;17.31;100.00;97949.97;5065411;28;20310;-81
2021/07/29 07:53:29;;;;;;;;;;;;;;;17.40;100.00;97952.63;5043048;28;20023;-81
2021/07/29 07:55:57;;;;;;;;;;;;;;;17.30;100.00;97965.31;5056481;28;20410;-81
2021/07/29 07:58:25;;;;;;;;;;;;;;;17.30;100.00;97959.69;5056706;28;19930;-81
2021/07/29 08:00:52;;;;;;;;;;;;;;;16.79;100.00;97959.53;5081551;28;20014;-81
2021/07/29 08:03:19;;;;;;;;;;;;;;;16.75;100.00;97978.69;5058097;28;20011;-81
2021/07/29 08:05:46;;;;;;;;;;;;;;;16.64;100.00;97976.50;5073741;28;20011;-80
2021/07/29 08:08:13;;;;;;;;;;;;;;;16.31;100.00;97986.44;5073694;28;19928;-80
2021/07/29 08:10:41;;;;;;;;;;;;;;;16.21;100.00;97997.81;5076888;28;19952;-78
2021/07/29 08:13:08;;;;;;;;;;;;;;;15.65;100.00;98003.69;5073397;28;19928;-79
2021/07/29 08:15:36;;;;;;;;;;;;;;;15.58;100.00;98009.72;5055492;28;19932;-79
2021/07/29 08:18:03;;;;;;;;;;;;;;;15.92;100.00;98003.44;5050083;28;19931;-79
2021/07/29 08:20:30;;;;;;;;;;;;;;;15.76;100.00;98011.56;5080411;28;19924;-80
2021/07/29 08:22:57;;;;;;;;;;;;;;;15.62;100.00;98007.47;5077248;28;19928;-80
2021/07/29 08:25:25;;;;;;;;;;;;;;;15.61;100.00;98013.59;5046187;28;19924;-79
2021/07/29 08:27:52;;;;;;;;;;;;;;;15.82;100.00;98018.88;5086756;28;20413;-80
2021/07/29 08:30:20;;;;;;;;;;;;;;;15.56;100.00;98017.84;5090471;28;19931;-79
2021/07/29 08:32:47;;;;;;;;;;;;;;;15.46;100.00;98012.78;5057766;28;20270;-79
2021/07/29 08:35:15;;;;;;;;;;;;;;;15.36;100.00;98020.47;5049179;28;19931;-81
2021/07/29 08:37:45;;;;;;;;;;;;;;;15.42;100.00;98012.94;5039130;28;19931;-81
2021/07/29 08:40:17;;;;;;;;;;;;;;;15.29;100.00;98034.91;5045425;28;20378;-80
2021/07/29 08:42:45;;;;;;;;;;;;;;;15.80;100.00;98032.66;5050542;28;20290;-81
2021/07/29 08:45:12;;;;;;;;;;;;;;;15.52;100.00;98017.25;5073467;28;20272;-82
2021/07/29 08:47:42;;;;;;;;;;;;;;;15.78;100.00;98040.81;5073178;28;19932;-79
2021/07/29 08:50:09;;;;;;;;;;;;;;;15.47;100.00;98028.41;5055732;28;20066;-79
2021/07/29 08:52:37;;;;;;;;;;;;;;;15.75;100.00;98041.75;5072073;28;19924;-79
2021/07/29 08:55:05;;;;;;;;;;;;;;;15.79;100.00;98045.19;5056569;28;19928;-79
2021/07/29 08:57:33;;;;;;;;;;;;;;;15.48;100.00;98036.34;5031507;28;19924;-79
2021/07/29 09:00:01;;;;;;;;;;;;;;;15.85;100.00;98043.25;5071629;28;19977;-79
2021/07/29 09:02:29;;;;;;;;;;;;;;;15.83;100.00;98031.69;5055575;28;20378;-79
2021/07/29 09:05:18;;;;;;;;;;;;;;;15.76;100.00;98026.44;5082829;28;19924;-79
2021/07/29 09:07:59;;;;;;;;;;;;;;;15.92;100.00;98025.19;5043880;28;19924;-79
2021/07/29 09:10:27;;;;;;;;;;;;;;;15.92;100.00;98034.41;5051387;28;19924;-79
2021/07/29 09:13:17;;;;;;;;;;;;;;;16.13;100.00;98038.13;5073619;28;19936;-79
2021/07/29 09:15:45;;;;;;;;;;;;;;;16.35;100.00;98037.75;5052828;28;20272;-79
2021/07/29 09:18:19;;;;;;;;;;;;;;;16.40;100.00;98037.84;5075430;28;19924;-80
2021/07/29 09:20:46;;;;;;;;;;;;;;;16.32;100.00;98033.06;5093298;28;19924;-79
2021/07/29 09:23:13;;;;;;;;;;;;;;;16.61;100.00;98025.41;5080815;28;19931;-80
2021/07/29 09:25:40;;;;;;;;;;;;;;;16.91;100.00;98024.06;5075180;28;19931;-80
2021/07/29 09:28:07;;;;;;;;;;;;;;;16.50;100.00;98030.06;5093615;28;19925;-80
2021/07/29 09:30:35;;;;;;;;;;;;;;;16.80;100.00;98029.53;5077231;28;20358;-80
2021/07/29 09:33:05;;;;;;;;;;;;;;;16.53;100.00;98021.44;5107644;28;20034;-80
2021/07/29 09:35:35;;;;;;;;;;;;;;;16.53;100.00;98017.81;5058711;28;19931;-80
2021/07/29 09:38:10;;;;;;;;;;;;;;;16.48;100.00;98021.34;5058984;28;20009;-79
2021/07/29 09:40:53;;;;;;;;;;;;;;;16.57;100.00;98015.59;5076524;28;19924;-80
2021/07/29 09:43:24;;;;;;;;;;;;;;;16.63;100.00;98027.75;5058584;28;19925;-80
2021/07/29 09:45:52;;;;;;;;;;;;;;;17.09;100.00;98028.69;5076448;28;19924;-80
2021/07/29 09:48:22;;;;;;;;;;;;;;;16.52;100.00;98030.38;5077861;28;19939;-80
2021/07/29 09:50:51;;;;;;;;;;;;;;;16.37;100.00;98032.41;5091853;28;19925;-80
2021/07/29 09:53:19;;;;;;;;;;;;;;;16.95;100.00;98040.81;5076347;28;19928;-80
2021/07/29 09:55:46;;;;;;;;;;;;;;;17.21;100.00;98050.16;5076374;28;20038;-80
2021/07/29 09:58:13;;;;;;;;;;;;;;;17.07;100.00;98043.28;5076582;28;19939;-80
2021/07/29 10:00:42;;;;;;;;;;;;;;;16.88;100.00;98046.84;5058909;28;19974;-80
2021/07/29 10:03:09;;;;;;;;;;;;;;;16.95;100.00;98060.56;5058582;28;20371;-81
2021/07/29 10:05:37;;;;;;;;;;;;;;;17.09;100.00;98065.38;5090168;28;19939;-81
2021/07/29 10:08:07;;;;;;;;;;;;;;;17.11;100.00;98062.84;5058564;28;20022;-82
2021/07/29 10:10:35;;;;;;;;;;;;;;;17.17;100.00;98063.69;5089886;28;20388;-82
2021/07/29 10:13:02;;;;;;;;;;;;;;;17.40;100.00;98059.91;5071039;28;20322;-83
2021/07/29 10:15:36;;;;;;;;;;;;;;;17.52;100.00;98062.41;5050854;28;19927;-82
2021/07/29 10:18:05;;;;;;;;;;;;;;;17.16;100.00;98062.16;5060884;28;20035;-82
2021/07/29 10:20:33;;;;;;;;;;;;;;;16.60;100.00;98056.91;5041866;28;19924;-82
2021/07/29 10:23:13;;;;;;;;;;;;;;;16.76;100.00;98078.97;5053954;28;19924;-82
2021/07/29 10:25:52;;;;;;;;;;;;;;;16.89;100.00;98093.56;5068362;28;19928;-82
2021/07/29 10:28:25;;;;;;;;;;;;;;;16.64;100.00;98094.16;5066659;28;20400;-82
2021/07/29 10:30:53;;;;;;;;;;;;;;;16.63;100.00;98086.97;5081431;28;20015;-82
2021/07/29 10:33:23;;;;;;;;;;;;;;;16.65;100.00;98085.19;5075722;28;19935;-82
2021/07/29 10:35:51;;;;;;;;;;;;;;;16.06;100.00;98101.28;5081224;28;20291;-82
2021/07/29 10:38:38;;;;;;;;;;;;;;;16.65;100.00;98118.25;5088312;28;19963;-82
2021/07/29 10:41:08;;;;;;;;;;;;;;;16.71;100.00;98111.47;5056689;28;19950;-82
2021/07/29 10:43:35;;;;;;;;;;;;;;;16.97;100.00;98103.94;5088164;28;19955;-82
2021/07/29 10:46:02;;;;;;;;;;;;;;;16.76;100.00;98116.41;5068258;28;19939;-82
2021/07/29 10:48:47;;;;;;;;;;;;;;;16.80;100.00;98110.56;5076353;28;19970;-82
2021/07/29 10:51:24;;;;;;;;;;;;;;;17.00;100.00;98111.44;5094187;28;19947;-83
2021/07/29 10:53:52;;;;;;;;;;;;;;;17.11;100.00;98105.19;5093407;28;20367;-83
2021/07/29 10:56:20;;;;;;;;;;;;;;;16.88;100.00;98109.69;5081128;28;19924;-82
2021/07/29 10:58:51;;;;;;;;;;;;;;;17.19;100.00;98118.38;5039265;28;19932;-82
2021/07/29 11:01:19;;;;;;;;;;;;;;;17.26;100.00;98118.00;5050917;28;20002;-82
2021/07/29 11:04:07;;;;;;;;;;;;;;;16.83;100.00;98134.97;5066381;28;20001;-82
2021/07/29 11:06:39;;;;;;;;;;;;;;;16.53;100.00;98147.53;5067038;28;19971;-83
2021/07/29 11:09:18;;;;;;;;;;;;;;;16.50;100.00;98143.66;5055575;28;19924;-83
2021/07/29 11:11:46;;;;;;;;;;;;;;;16.01;100.00;98137.78;5065259;28;19945;-82
2021/07/29 11:14:14;;;;;;;;;;;;;;;16.23;100.00;98144.66;5075966;28;19924;-82
2021/07/29 11:16:42;;;;;;;;;;;;;;;16.15;100.00;98154.75;5073523;28;19931;-82
2021/07/29 11:19:09;;;;;;;;;;;;;;;16.37;100.00;98162.06;5055664;28;19924;-82
2021/07/29 11:21:37;;;;;;;;;;;;;;;16.62;100.00;98153.06;5039026;28;20341;-82
2021/07/29 11:24:04;;;;;;;;;;;;;;;16.50;100.00;98151.31;5052132;28;20394;-82
2021/07/29 11:26:43;;;;;;;;;;;;;;;16.74;100.00;98140.72;5036624;28;19924;-82
2021/07/29 11:29:10;;;;;;;;;;;;;;;17.04;100.00;98153.56;5068526;28;19924;-82
2021/07/29 11:31:39;;;;;;;;;;;;;;;16.83;100.00;98140.63;5055661;28;19928;-82
2021/07/29 11:34:06;;;;;;;;;;;;;;;17.18;100.00;98138.63;5055251;28;20402;-83
2021/07/29 11:36:34;;;;;;;;;;;;;;;16.90;100.00;98135.38;5038829;28;19973;-82
2021/07/29 11:39:03;;;;;;;;;;;;;;;16.74;100.00;98126.63;5048795;28;19939;-82
2021/07/29 11:41:31;;;;;;;;;;;;;;;17.08;100.00;98123.88;5041593;28;19947;-83
2021/07/29 11:44:00;;;;;;;;;;;;;;;17.10;100.00;98129.03;5038597;28;19929;-82
2021/07/29 11:46:28;;;;;;;;;;;;;;;17.33;100.00;98128.88;5070816;28;20378;-83
2021/07/29 11:49:02;;;;;;;;;;;;;;;17.41;100.00;98126.41;5058578;28;20174;-82
2021/07/29 11:51:30;;;;;;;;;;;;;;;17.92;100.00;98135.09;5092110;28;20604;-82
2021/07/29 11:53:57;;;;;;;;;;;;;;;17.30;100.00;98124.19;5045048;28;19931;-82
2021/07/29 11:56:24;;;;;;;;;;;;;;;17.15;100.00;98126.28;5041886;28;19924;-82
2021/07/29 11:59:01;;;;;;;;;;;;;;;17.53;100.00;98136.63;5052614;28;19928;-82
2021/07/29 12:01:28;;;;;;;;;;;;;;;17.48;100.00;98135.28;5068088;28;20066;-82
2021/07/29 12:03:56;;;;;;;;;;;;;;;17.87;100.00;98138.63;5055472;28;19925;-82
2021/07/29 12:06:25;;;;;;;;;;;;;;;17.98;100.00;98132.34;5045878;28;20026;-82
2021/07/29 12:08:54;;;;;;;;;;;;;;;18.31;100.00;98133.47;5074724;28;19924;-82
2021/07/29 12:11:21;;;;;;;;;;;;;;;18.43;100.00;98129.56;5058130;28;19923;-82
2021/07/29 12:13:49;;;;;;;;;;;;;;;17.98;100.00;98125.41;5092736;28;20019;-83
2021/07/29 12:16:16;;;;;;;;;;;;;;;18.67;100.00;98124.41;5072379;28;20394;-82
2021/07/29 12:18:43;;;;;;;;;;;;;;;18.62;100.00;98113.78;5054621;28;19925;-83
2021/07/29 12:21:10;;;;;;;;;;;;;;;18.15;100.00;98114.28;5068591;28;19924;-82
2021/07/29 12:23:49;;;;;;;;;;;;;;;18.11;100.00;98107.31;5082266;28;19924;-82
2021/07/29 12:26:16;;;;;;;;;;;;;;;18.81;100.00;98122.72;5057361;28;19936;-82
2021/07/29 12:28:44;;;;;;;;;;;;;;;18.73;100.00;98113.91;5038115;28;19928;-82
2021/07/29 12:31:17;;;;;;;;;;;;;;;18.58;100.00;98113.25;5038184;28;19931;-82
2021/07/29 12:34:10;;;;;;;;;;;;;;;18.41;100.00;98117.16;5046802;28;19959;-82
2021/07/29 12:36:48;;;;;;;;;;;;;;;18.16;100.00;98118.66;5038312;28;19924;-82
2021/07/29 12:39:16;;;;;;;;;;;;;;;18.20;100.00;98116.41;5037874;28;20441;-82
2021/07/29 12:41:44;;;;;;;;;;;;;;;18.45;100.00;98121.31;5051748;28;19932;-82
2021/07/29 12:44:18;;;;;;;;;;;;;;;18.28;100.00;98126.00;5072248;28;19978;-82